Time;durP1;ratioP1;P1;durP2;ratioP2;P2;SDS_P1;SDS_P2;PMS_P1;PMS_P2;Temp;Humidity;BMP_temperature;BMP_pressure;BME280_temperature;BME280_humidity;BME280_pressure;Samples;Min_cycle;Max_cycle;Signal;HPM_P1;HPM_P2
2020/12/31 00:00:40;;;;;;;;;;;;;;;21.97;28.10;97549.81;5120602;28;1985;-76
2020/12/31 00:03:06;;;;;;;;;;;;;;;21.50;28.71;97556.25;5120474;28;709;-75
2020/12/31 00:05:31;;;;;;;;;;;;;;;21.32;29.01;97557.63;5120534;28;630;-76
2020/12/31 00:07:57;;;;;;;;;;;;;;;21.63;29.14;97548.53;5120902;28;905;-75
2020/12/31 00:10:22;;;;;;;;;;;;;;;22.20;27.83;97546.56;5120487;28;814;-76
2020/12/31 00:12:48;;;;;;;;;;;;;;;22.50;27.37;97547.09;5120357;28;913;-75
2020/12/31 00:15:13;;;;;;;;;;;;;;;22.60;27.25;97548.75;5120546;28;601;-76
2020/12/31 00:17:38;;;;;;;;;;;;;;;21.85;28.25;97549.38;5120451;28;1203;-76
2020/12/31 00:20:04;;;;;;;;;;;;;;;21.62;28.46;97549.78;5120480;28;1982;-76
2020/12/31 00:22:30;;;;;;;;;;;;;;;21.58;28.45;97543.44;5119504;28;919;-75
2020/12/31 00:24:55;;;;;;;;;;;;;;;21.81;28.66;97548.72;5119983;28;902;-75
2020/12/31 00:27:20;;;;;;;;;;;;;;;22.33;27.49;97555.81;5120276;28;902;-75
2020/12/31 00:29:46;;;;;;;;;;;;;;;22.52;27.12;97555.94;5120268;28;710;-76
2020/12/31 00:32:11;;;;;;;;;;;;;;;22.31;27.25;97549.78;5120411;28;649;-76
2020/12/31 00:34:37;;;;;;;;;;;;;;;21.62;28.31;97549.00;5124317;28;613;-75
2020/12/31 00:37:02;;;;;;;;;;;;;;;21.42;28.71;97554.91;5124022;28;892;-75
2020/12/31 00:39:29;;;;;;;;;;;;;;;21.33;28.80;97558.41;5123684;27;1949;-75
2020/12/31 00:41:57;;;;;;;;;;;;;;;21.66;28.30;97552.47;5124054;28;839;-75
2020/12/31 00:44:23;;;;;;;;;;;;;;;21.55;28.71;97544.34;5123964;28;716;-75
2020/12/31 00:46:48;;;;;;;;;;;;;;;21.53;29.47;97549.69;5123975;28;666;-75
2020/12/31 00:49:14;;;;;;;;;;;;;;;22.18;27.95;97549.06;5123710;28;646;-75
2020/12/31 00:51:39;;;;;;;;;;;;;;;22.41;27.82;97558.38;5123163;28;1137;-75
2020/12/31 00:54:06;;;;;;;;;;;;;;;22.67;27.00;97562.66;5122998;28;1248;-76
2020/12/31 00:56:31;;;;;;;;;;;;;;;21.79;28.38;97556.88;5140303;27;876;-76
2020/12/31 00:58:57;;;;;;;;;;;;;;;21.62;28.76;97558.28;5123201;28;1897;-76
2020/12/31 01:01:24;;;;;;;;;;;;;;;21.31;29.03;97558.88;5122995;28;1189;-75
2020/12/31 01:03:49;;;;;;;;;;;;;;;21.63;28.64;97553.41;5123456;28;660;-75
2020/12/31 01:06:15;;;;;;;;;;;;;;;21.76;28.96;97548.50;5123548;28;927;-75
2020/12/31 01:08:40;;;;;;;;;;;;;;;22.52;27.30;97555.94;5123358;28;891;-75
2020/12/31 01:11:06;;;;;;;;;;;;;;;22.74;27.03;97568.06;5123363;28;855;-75
2020/12/31 01:13:31;;;;;;;;;;;;;;;22.74;27.15;97570.91;5123253;28;621;-75
2020/12/31 01:15:56;;;;;;;;;;;;;;;22.53;26.91;97563.19;5123751;28;705;-76
2020/12/31 01:18:22;;;;;;;;;;;;;;;21.39;28.81;97550.16;5121878;28;1902;-75
2020/12/31 01:20:47;;;;;;;;;;;;;;;21.57;28.50;97545.50;5122935;28;852;-76
2020/12/31 01:23:13;;;;;;;;;;;;;;;21.57;28.47;97545.50;5122953;28;878;-75
2020/12/31 01:25:38;;;;;;;;;;;;;;;21.61;28.88;97542.53;5123278;27;911;-75
2020/12/31 01:28:04;;;;;;;;;;;;;;;22.09;28.09;97551.81;5123261;28;671;-76
2020/12/31 01:30:30;;;;;;;;;;;;;;;22.56;27.24;97545.25;5122394;28;575;-76
2020/12/31 01:32:55;;;;;;;;;;;;;;;22.78;26.94;97546.00;5123177;28;611;-76
2020/12/31 01:35:21;;;;;;;;;;;;;;;22.09;28.00;97546.13;5123097;28;765;-76
2020/12/31 01:37:46;;;;;;;;;;;;;;;21.23;29.41;97548.22;5122951;28;810;-76
2020/12/31 01:40:12;;;;;;;;;;;;;;;21.22;29.30;97540.97;5122686;28;1978;-75
2020/12/31 01:42:40;;;;;;;;;;;;;;;21.46;28.84;97538.63;5122834;28;700;-76
2020/12/31 01:45:06;;;;;;;;;;;;;;;21.92;28.71;97536.22;5121444;28;626;-76
2020/12/31 01:47:31;;;;;;;;;;;;;;;22.38;27.82;97539.44;5122751;28;690;-76
2020/12/31 01:49:57;;;;;;;;;;;;;;;22.67;27.32;97528.63;5122828;28;911;-76
2020/12/31 01:52:22;;;;;;;;;;;;;;;22.05;27.96;97525.63;5122723;28;898;-76
2020/12/31 01:54:48;;;;;;;;;;;;;;;21.43;28.86;97517.66;5122447;28;1105;-75
2020/12/31 01:57:13;;;;;;;;;;;;;;;21.55;28.61;97524.53;5122471;28;581;-76
2020/12/31 01:59:39;;;;;;;;;;;;;;;21.59;28.61;97525.22;5122491;28;2031;-76
2020/12/31 02:02:07;;;;;;;;;;;;;;;21.90;28.60;97527.38;5122737;28;698;-75
2020/12/31 02:04:33;;;;;;;;;;;;;;;22.58;27.08;97522.88;5122147;28;895;-75
2020/12/31 02:06:59;;;;;;;;;;;;;;;22.74;27.11;97528.34;5121416;28;919;-76
2020/12/31 02:09:24;;;;;;;;;;;;;;;22.49;27.22;97522.84;5122155;28;871;-76
2020/12/31 02:11:50;;;;;;;;;;;;;;;21.77;27.80;97519.72;5122786;28;668;-76
2020/12/31 02:14:15;;;;;;;;;;;;;;;21.28;28.75;97516.50;5122240;28;667;-76
2020/12/31 02:16:41;;;;;;;;;;;;;;;21.05;29.09;97514.84;5121945;28;1112;-76
2020/12/31 02:19:06;;;;;;;;;;;;;;;22.06;28.57;97513.03;5121779;28;1970;-75
2020/12/31 02:21:32;;;;;;;;;;;;;;;22.40;27.43;97511.44;5121896;28;915;-75
2020/12/31 02:23:58;;;;;;;;;;;;;;;22.63;27.00;97506.06;5121910;28;958;-76
2020/12/31 02:26:25;;;;;;;;;;;;;;;22.55;27.19;97504.75;5122071;28;640;-75
2020/12/31 02:28:50;;;;;;;;;;;;;;;21.82;28.16;97507.03;5122230;28;641;-76
2020/12/31 02:31:16;;;;;;;;;;;;;;;21.36;28.66;97505.78;5121448;28;637;-75
2020/12/31 02:33:45;;;;;;;;;;;;;;;21.61;28.33;97511.41;5121377;28;938;-75
2020/12/31 02:36:10;;;;;;;;;;;;;;;21.50;28.68;97505.28;5121566;28;955;-76
2020/12/31 02:38:36;;;;;;;;;;;;;;;21.83;28.76;97506.56;5121455;28;1968;-76
2020/12/31 02:41:01;;;;;;;;;;;;;;;22.31;27.97;97500.81;5121662;28;694;-75
2020/12/31 02:43:26;;;;;;;;;;;;;;;22.49;27.55;97494.50;5121496;28;737;-76
2020/12/31 02:45:52;;;;;;;;;;;;;;;22.63;27.36;97488.25;5121079;28;714;-75
2020/12/31 02:48:17;;;;;;;;;;;;;;;22.28;27.31;97502.56;5121437;28;937;-76
2020/12/31 02:50:43;;;;;;;;;;;;;;;21.77;28.70;97504.78;5121132;28;858;-76
2020/12/31 02:53:08;;;;;;;;;;;;;;;21.50;28.90;97510.94;5121295;28;970;-76
2020/12/31 02:55:34;;;;;;;;;;;;;;;20.72;30.01;97500.91;5121111;28;670;-76
2020/12/31 02:57:59;;;;;;;;;;;;;;;21.77;29.00;97499.13;5120731;28;622;-76
2020/12/31 03:00:24;;;;;;;;;;;;;;;22.35;27.51;97502.28;5121302;28;1905;-75
2020/12/31 03:02:50;;;;;;;;;;;;;;;22.65;27.14;97494.28;5120930;28;950;-76
2020/12/31 03:05:16;;;;;;;;;;;;;;;22.40;27.44;97494.44;5120917;28;855;-75
2020/12/31 03:07:42;;;;;;;;;;;;;;;21.42;28.47;97492.66;5121116;28;867;-75
2020/12/31 03:10:07;;;;;;;;;;;;;;;21.58;28.30;97492.50;5121043;28;717;-76
2020/12/31 03:12:32;;;;;;;;;;;;;;;21.52;28.68;97491.50;5121047;28;657;-76
2020/12/31 03:14:58;;;;;;;;;;;;;;;21.50;28.51;97494.78;5121049;28;555;-76
2020/12/31 03:17:23;;;;;;;;;;;;;;;21.59;28.77;97488.41;5120608;28;1092;-75
2020/12/31 03:19:49;;;;;;;;;;;;;;;21.59;29.43;97485.56;5120832;28;1910;-76
2020/12/31 03:22:14;;;;;;;;;;;;;;;22.25;27.88;97497.78;5121236;28;824;-76
2020/12/31 03:24:39;;;;;;;;;;;;;;;22.42;27.51;97495.53;5120885;28;657;-76
2020/12/31 03:27:05;;;;;;;;;;;;;;;22.60;27.35;97500.53;5120936;28;657;-76
2020/12/31 03:29:30;;;;;;;;;;;;;;;21.78;28.48;97487.31;5120989;28;595;-76
2020/12/31 03:31:56;;;;;;;;;;;;;;;21.64;28.64;97499.16;5120606;28;966;-76
2020/12/31 03:34:21;;;;;;;;;;;;;;;21.32;28.72;97498.19;5120428;28;907;-76
2020/12/31 03:36:47;;;;;;;;;;;;;;;21.28;29.37;97493.88;5120915;28;903;-76
2020/12/31 03:39:12;;;;;;;;;;;;;;;21.95;28.32;97498.47;5120902;28;1980;-76
2020/12/31 03:41:37;;;;;;;;;;;;;;;22.50;27.44;97496.06;5121086;28;646;-76
2020/12/31 03:44:03;;;;;;;;;;;;;;;22.70;27.24;97502.19;5120818;28;662;-75
2020/12/31 03:46:28;;;;;;;;;;;;;;;22.01;27.75;97493.81;5120732;28;924;-76
2020/12/31 03:48:54;;;;;;;;;;;;;;;21.69;28.11;97489.28;5119593;28;929;-75
2020/12/31 03:51:19;;;;;;;;;;;;;;;21.54;28.34;97488.97;5120845;28;1003;-76
2020/12/31 03:53:44;;;;;;;;;;;;;;;21.62;28.19;97501.66;5120848;28;611;-76
2020/12/31 03:56:10;;;;;;;;;;;;;;;22.08;28.64;97504.88;5121109;28;630;-76
2020/12/31 03:58:35;;;;;;;;;;;;;;;22.35;27.76;97496.59;5120476;28;1905;-75
2020/12/31 04:01:01;;;;;;;;;;;;;;;22.60;27.57;97492.81;5120416;28;804;-76
2020/12/31 04:03:26;;;;;;;;;;;;;;;22.47;27.21;97502.66;5120104;28;899;-76
2020/12/31 04:05:52;;;;;;;;;;;;;;;22.12;27.95;97497.06;5120719;28;927;-76
2020/12/31 04:08:17;;;;;;;;;;;;;;;21.21;29.08;97494.91;5122723;28;673;-76
2020/12/31 04:10:42;;;;;;;;;;;;;;;20.86;29.71;97502.50;5124580;28;645;-76
2020/12/31 04:13:08;;;;;;;;;;;;;;;21.58;28.64;97510.25;5124655;28;594;-76
2020/12/31 04:15:33;;;;;;;;;;;;;;;21.97;28.21;97493.16;5124147;28;939;-75
2020/12/31 04:17:59;;;;;;;;;;;;;;;22.38;27.50;97500.53;5124030;28;1041;-76
2020/12/31 04:20:24;;;;;;;;;;;;;;;22.74;26.85;97500.00;5124325;28;1913;-76
2020/12/31 04:22:50;;;;;;;;;;;;;;;22.16;27.53;97494.88;5124349;27;635;-76
2020/12/31 04:25:15;;;;;;;;;;;;;;;21.76;27.81;97501.16;5124676;28;660;-76
2020/12/31 04:27:41;;;;;;;;;;;;;;;21.52;28.26;97497.16;5124643;27;667;-75
2020/12/31 04:30:06;;;;;;;;;;;;;;;21.45;28.42;97503.03;5124084;28;915;-76
2020/12/31 04:32:31;;;;;;;;;;;;;;;21.69;28.95;97490.06;5123831;28;954;-75
2020/12/31 04:34:57;;;;;;;;;;;;;;;22.26;27.72;97490.88;5124061;28;995;-75
2020/12/31 04:37:22;;;;;;;;;;;;;;;22.47;27.42;97494.16;5124265;28;662;-75
2020/12/31 04:39:48;;;;;;;;;;;;;;;22.85;26.54;97503.19;5123820;28;1905;-75
2020/12/31 04:42:13;;;;;;;;;;;;;;;22.08;27.79;97490.72;5124476;28;681;-76
2020/12/31 04:44:39;;;;;;;;;;;;;;;21.85;28.02;97486.28;5123466;28;843;-76
2020/12/31 04:47:08;;;;;;;;;;;;;;;21.20;28.63;97487.69;5123919;28;817;-75
2020/12/31 04:49:44;;;;;;;;;;;;;;;21.16;29.17;97487.00;5123834;28;871;-75
2020/12/31 04:52:09;;;;;;;;;;;;;;;21.82;28.49;97492.88;5123312;28;649;-75
2020/12/31 04:54:36;;;;;;;;;;;;;;;22.58;27.21;97489.66;5123654;28;663;-76
2020/12/31 04:57:02;;;;;;;;;;;;;;;22.56;27.10;97489.31;5123342;28;669;-77
2020/12/31 04:59:27;;;;;;;;;;;;;;;22.59;26.91;97487.63;5123660;28;1898;-76
2020/12/31 05:01:53;;;;;;;;;;;;;;;21.78;27.91;97487.31;5123674;28;642;-76
2020/12/31 05:04:18;;;;;;;;;;;;;;;21.72;28.16;97485.53;5123168;28;1073;-77
2020/12/31 05:06:44;;;;;;;;;;;;;;;21.64;28.63;97498.34;5122790;28;1430;-77
2020/12/31 05:09:16;;;;;;;;;;;;;;;21.35;29.25;97496.50;5122789;28;959;-77
2020/12/31 05:11:42;;;;;;;;;;;;;;;21.48;28.92;97496.47;5122700;28;623;-75
2020/12/31 05:14:07;;;;;;;;;;;;;;;21.44;29.41;97507.13;5122648;28;662;-77
2020/12/31 05:16:33;;;;;;;;;;;;;;;22.42;27.78;97514.59;5122508;28;1234;-76
2020/12/31 05:18:58;;;;;;;;;;;;;;;22.63;27.40;97505.28;5122318;28;1901;-76
2020/12/31 05:21:24;;;;;;;;;;;;;;;22.78;27.12;97505.50;5122934;28;937;-76
2020/12/31 05:23:49;;;;;;;;;;;;;;;22.84;27.17;97495.13;5123208;28;931;-76
2020/12/31 05:26:27;;;;;;;;;;;;;;;22.06;28.08;97501.72;5123192;28;645;-77
2020/12/31 05:28:53;;;;;;;;;;;;;;;21.83;28.30;97500.91;5122412;28;606;-77
2020/12/31 05:31:21;;;;;;;;;;;;;;;21.68;28.74;97510.34;5123158;28;626;-77
2020/12/31 05:33:46;;;;;;;;;;;;;;;21.62;29.05;97515.81;5122081;28;843;-76
2020/12/31 05:36:15;;;;;;;;;;;;;;;21.58;29.15;97506.66;5122863;28;824;-77
2020/12/31 05:38:41;;;;;;;;;;;;;;;21.19;29.54;97520.06;5122647;28;1901;-77
2020/12/31 05:41:07;;;;;;;;;;;;;;;21.95;28.74;97512.63;5121908;28;811;-77
2020/12/31 05:43:32;;;;;;;;;;;;;;;22.53;27.74;97510.09;5122827;28;710;-77
2020/12/31 05:46:10;;;;;;;;;;;;;;;22.57;27.79;97512.81;5122797;28;698;-77
2020/12/31 05:48:36;;;;;;;;;;;;;;;22.24;27.79;97518.91;5122705;28;870;-77
2020/12/31 05:51:24;;;;;;;;;;;;;;;21.65;28.97;97526.22;5122473;28;920;-77
2020/12/31 05:53:49;;;;;;;;;;;;;;;21.57;28.74;97517.19;5122717;28;810;-76
2020/12/31 05:56:16;;;;;;;;;;;;;;;21.61;28.79;97528.38;5122012;28;657;-77
2020/12/31 05:58:45;;;;;;;;;;;;;;;21.64;29.37;97538.78;5122528;28;1906;-77
2020/12/31 06:01:11;;;;;;;;;;;;;;;22.27;27.89;97529.28;5122658;28;697;-77
2020/12/31 06:03:37;;;;;;;;;;;;;;;22.66;27.49;97532.72;5122328;28;709;-77
2020/12/31 06:06:04;;;;;;;;;;;;;;;22.49;27.85;97525.69;5121168;28;966;-75
2020/12/31 06:08:30;;;;;;;;;;;;;;;22.04;28.44;97521.22;5119989;28;897;-73
2020/12/31 06:10:57;;;;;;;;;;;;;;;21.74;28.78;97531.19;5121939;28;701;-73
2020/12/31 06:13:23;;;;;;;;;;;;;;;21.35;29.37;97538.16;5121251;28;1484;-73
2020/12/31 06:15:48;;;;;;;;;;;;;;;21.54;29.33;97539.94;5121475;28;709;-74
2020/12/31 06:18:14;;;;;;;;;;;;;;;22.00;28.95;97535.50;5119883;28;1145;-74
2020/12/31 06:20:39;;;;;;;;;;;;;;;22.32;28.39;97531.53;5100171;28;1985;-75
2020/12/31 06:23:12;;;;;;;;;;;;;;;22.58;27.57;97531.38;5115129;28;1150;-74
2020/12/31 06:25:41;;;;;;;;;;;;;;;22.43;27.37;97524.69;5121533;28;1223;-76
2020/12/31 06:28:11;;;;;;;;;;;;;;;21.81;28.28;97520.41;5118893;28;1089;-76
2020/12/31 06:30:37;;;;;;;;;;;;;;;21.54;28.96;97522.94;5121718;28;1160;-76
2020/12/31 06:33:05;;;;;;;;;;;;;;;21.60;28.87;97521.13;5120770;28;1034;-76
2020/12/31 06:35:30;;;;;;;;;;;;;;;21.08;29.83;97526.03;5121496;28;900;-75
2020/12/31 06:37:56;;;;;;;;;;;;;;;21.73;29.62;97533.22;5120696;28;826;-75
2020/12/31 06:40:24;;;;;;;;;;;;;;;22.24;28.70;97532.28;5121419;28;1893;-75
2020/12/31 06:42:59;;;;;;;;;;;;;;;22.63;27.88;97528.75;5121573;28;575;-75
2020/12/31 06:45:44;;;;;;;;;;;;;;;22.70;27.73;97532.59;5121564;28;641;-76
2020/12/31 06:48:25;;;;;;;;;;;;;;;21.99;28.39;97535.97;5120955;28;1093;-76
2020/12/31 06:50:53;;;;;;;;;;;;;;;21.51;29.49;97529.53;5121056;28;955;-74
2020/12/31 06:53:31;;;;;;;;;;;;;;;21.88;28.67;97527.06;5121425;28;677;-76
2020/12/31 06:55:57;;;;;;;;;;;;;;;21.56;29.34;97534.63;5121229;28;670;-75
2020/12/31 06:58:24;;;;;;;;;;;;;;;21.45;29.65;97537.00;5120625;28;665;-73
2020/12/31 07:00:49;;;;;;;;;;;;;;;21.79;29.50;97533.44;5121187;28;1909;-75
2020/12/31 07:03:15;;;;;;;;;;;;;;;22.27;28.49;97532.13;5119712;28;1014;-75
2020/12/31 07:05:40;;;;;;;;;;;;;;;22.71;27.73;97529.28;5119812;28;884;-76
2020/12/31 07:08:06;;;;;;;;;;;;;;;22.73;27.59;97529.59;5120803;28;791;-76
2020/12/31 07:10:47;;;;;;;;;;;;;;;21.90;28.64;97519.69;5121546;28;713;-76
2020/12/31 07:13:42;;;;;;;;;;;;;;;21.38;29.64;97520.28;5120801;28;694;-74
2020/12/31 07:16:07;;;;;;;;;;;;;;;21.57;29.21;97531.34;5111342;28;1264;-75
2020/12/31 07:18:33;;;;;;;;;;;;;;;21.57;29.40;97522.84;5119871;28;1136;-76
2020/12/31 07:21:01;;;;;;;;;;;;;;;21.55;29.29;97530.19;5120213;28;1976;-75
2020/12/31 07:23:36;;;;;;;;;;;;;;;21.49;29.44;97510.16;5116953;28;1145;-76
2020/12/31 07:26:02;;;;;;;;;;;;;;;21.43;29.88;97517.66;5120205;28;1191;-75
2020/12/31 07:28:27;;;;;;;;;;;;;;;21.88;29.51;97518.56;5120801;28;1132;-75
2020/12/31 07:30:53;;;;;;;;;;;;;;;22.39;28.25;97518.38;5102626;28;1304;-74
2020/12/31 07:33:38;;;;;;;;;;;;;;;22.56;28.18;97512.00;5119980;28;1184;-75
2020/12/31 07:36:13;;;;;;;;;;;;;;;21.29;29.94;97493.41;5119713;28;1309;-76
2020/12/31 07:38:39;;;;;;;;;;;;;;;21.76;29.22;97501.16;5120244;28;1889;-77
2020/12/31 07:41:04;;;;;;;;;;;;;;;21.53;29.49;97499.50;5120581;28;1172;-75
2020/12/31 07:43:33;;;;;;;;;;;;;;;21.41;29.73;97499.56;5116973;28;1156;-73
2020/12/31 07:46:01;;;;;;;;;;;;;;;21.71;29.75;97501.75;5119301;28;1384;-75
2020/12/31 07:48:27;;;;;;;;;;;;;;;22.32;28.51;97491.06;5120173;28;1342;-74
2020/12/31 07:50:56;;;;;;;;;;;;;;;22.46;28.36;97507.53;5119905;28;1211;-76
2020/12/31 07:53:21;;;;;;;;;;;;;;;22.69;27.75;97502.63;5120358;28;1148;-75
2020/12/31 07:55:48;;;;;;;;;;;;;;;21.78;29.27;97497.88;5120290;28;1318;-76
2020/12/31 07:58:13;;;;;;;;;;;;;;;21.42;29.58;97499.09;5120762;28;602;-76
2020/12/31 08:00:38;;;;;;;;;;;;;;;21.50;29.25;97506.09;5118785;28;1980;-74
2020/12/31 08:03:07;;;;;;;;;;;;;;;21.72;29.01;97496.88;5119087;28;1133;-75
2020/12/31 08:05:32;;;;;;;;;;;;;;;22.29;28.45;97504.13;5120024;28;1088;-75
2020/12/31 08:07:58;;;;;;;;;;;;;;;22.59;28.14;97505.44;5119899;28;1263;-76
2020/12/31 08:10:24;;;;;;;;;;;;;;;22.68;27.93;97501.03;5118828;28;1185;-76
2020/12/31 08:12:56;;;;;;;;;;;;;;;21.94;28.61;97491.22;5120326;28;1168;-75
2020/12/31 08:15:22;;;;;;;;;;;;;;;21.31;29.57;97493.78;5119052;28;1125;-73
2020/12/31 08:17:48;;;;;;;;;;;;;;;21.76;28.61;97495.50;5118599;28;1149;-73
2020/12/31 08:20:13;;;;;;;;;;;;;;;21.62;29.24;97483.88;5102304;28;1901;-76
2020/12/31 08:22:40;;;;;;;;;;;;;;;21.45;30.09;97492.53;5118921;28;1152;-73
2020/12/31 08:25:08;;;;;;;;;;;;;;;22.30;28.60;97494.38;5119725;28;702;-75
2020/12/31 08:27:35;;;;;;;;;;;;;;;22.35;28.59;97490.16;5120301;28;669;-73
2020/12/31 08:30:03;;;;;;;;;;;;;;;22.71;28.26;97483.91;5119843;28;833;-74
2020/12/31 08:32:29;;;;;;;;;;;;;;;22.28;28.48;97473.44;5119252;28;903;-73
2020/12/31 08:34:55;;;;;;;;;;;;;;;21.63;29.50;97474.13;5119313;28;1058;-75
2020/12/31 08:37:25;;;;;;;;;;;;;;;21.16;30.55;97474.88;5119702;28;713;-76
2020/12/31 08:39:51;;;;;;;;;;;;;;;21.52;29.86;97463.19;5119964;28;1905;-75
2020/12/31 08:42:18;;;;;;;;;;;;;;;21.67;29.86;97458.59;5120079;28;591;-75
2020/12/31 08:44:43;;;;;;;;;;;;;;;22.27;29.15;97451.97;5119749;28;1050;-74
2020/12/31 08:47:21;;;;;;;;;;;;;;;22.40;28.55;97446.25;5119676;28;901;-75
2020/12/31 08:49:56;;;;;;;;;;;;;;;22.51;28.54;97446.63;5119760;28;875;-76
2020/12/31 08:52:22;;;;;;;;;;;;;;;21.35;30.16;97441.94;5119711;28;1089;-76
2020/12/31 08:55:03;;;;;;;;;;;;;;;21.65;29.84;97432.78;5120909;28;1404;-76
2020/12/31 08:57:29;;;;;;;;;;;;;;;21.67;29.76;97430.28;5121954;28;1256;-76
2020/12/31 08:59:54;;;;;;;;;;;;;;;21.52;29.83;97417.88;5122602;28;1986;-76
2020/12/31 09:02:19;;;;;;;;;;;;;;;21.52;29.83;97417.88;5122251;28;1144;-74
2020/12/31 09:04:45;;;;;;;;;;;;;;;21.91;30.04;97413.63;5122974;28;1006;-76
2020/12/31 09:07:10;;;;;;;;;;;;;;;22.21;29.24;97412.13;5122706;28;1259;-76
2020/12/31 09:09:36;;;;;;;;;;;;;;;22.41;28.92;97408.13;5122987;28;1239;-76
2020/12/31 09:12:03;;;;;;;;;;;;;;;22.20;28.50;97413.38;5123002;28;1207;-76
2020/12/31 09:14:29;;;;;;;;;;;;;;;21.65;29.68;97415.78;5121481;28;1149;-76
2020/12/31 09:16:55;;;;;;;;;;;;;;;21.37;30.05;97400.63;5122460;28;1239;-76
2020/12/31 09:19:20;;;;;;;;;;;;;;;21.57;29.77;97414.47;5122600;28;1901;-76
2020/12/31 09:21:46;;;;;;;;;;;;;;;21.48;29.77;97406.69;5122695;28;1159;-76
2020/12/31 09:24:15;;;;;;;;;;;;;;;21.94;29.82;97406.25;5122804;28;1330;-76
2020/12/31 09:26:40;;;;;;;;;;;;;;;22.35;29.14;97394.56;5121606;28;1117;-74
2020/12/31 09:29:09;;;;;;;;;;;;;;;22.62;28.33;97396.72;5121388;28;1280;-76
2020/12/31 09:31:37;;;;;;;;;;;;;;;22.13;28.91;97388.16;5119791;28;1169;-75
2020/12/31 09:34:03;;;;;;;;;;;;;;;21.90;29.48;97374.44;5122377;28;1175;-75
2020/12/31 09:36:28;;;;;;;;;;;;;;;21.50;30.14;97370.25;5122333;28;1152;-75
2020/12/31 09:38:54;;;;;;;;;;;;;;;21.67;29.52;97372.88;5122335;28;1906;-75
2020/12/31 09:41:20;;;;;;;;;;;;;;;21.63;29.64;97361.69;5122047;28;1164;-75
2020/12/31 09:43:45;;;;;;;;;;;;;;;21.33;30.36;97355.47;5119345;28;1207;-75
2020/12/31 09:46:11;;;;;;;;;;;;;;;21.69;30.42;97365.50;5121902;28;1235;-76
2020/12/31 09:48:36;;;;;;;;;;;;;;;22.17;29.31;97349.13;5121041;28;1192;-74
2020/12/31 09:51:02;;;;;;;;;;;;;;;22.44;28.82;97350.53;5121952;28;1305;-74
2020/12/31 09:53:28;;;;;;;;;;;;;;;22.68;28.32;97337.34;5122130;28;1164;-75
2020/12/31 09:55:53;;;;;;;;;;;;;;;21.98;29.17;97330.44;5122309;28;1089;-74
2020/12/31 09:58:19;;;;;;;;;;;;;;;21.93;29.53;97322.53;5122010;28;955;-76
2020/12/31 10:00:44;;;;;;;;;;;;;;;21.40;30.22;97314.81;5121893;28;1910;-76
2020/12/31 10:03:10;;;;;;;;;;;;;;;21.33;30.50;97315.06;5122205;28;930;-76
2020/12/31 10:05:35;;;;;;;;;;;;;;;21.38;30.17;97310.84;5121812;28;709;-75
2020/12/31 10:08:00;;;;;;;;;;;;;;;21.53;29.97;97306.25;5122555;28;709;-75
2020/12/31 10:10:26;;;;;;;;;;;;;;;21.36;30.57;97319.03;5122131;28;594;-75
2020/12/31 10:12:51;;;;;;;;;;;;;;;22.01;29.74;97315.31;5121705;28;915;-75
2020/12/31 10:15:17;;;;;;;;;;;;;;;22.51;28.34;97319.03;5121060;28;906;-76
2020/12/31 10:17:42;;;;;;;;;;;;;;;22.63;28.52;97318.13;5121851;28;1108;-74
2020/12/31 10:20:08;;;;;;;;;;;;;;;21.99;29.12;97312.19;5122183;28;1882;-75
2020/12/31 10:22:33;;;;;;;;;;;;;;;21.54;29.49;97307.81;5121745;28;1088;-75
2020/12/31 10:24:58;;;;;;;;;;;;;;;21.74;29.17;97296.16;5121441;28;1191;-76
2020/12/31 10:27:24;;;;;;;;;;;;;;;21.20;30.22;97303.78;5121115;28;1188;-74
2020/12/31 10:29:49;;;;;;;;;;;;;;;21.49;29.76;97285.75;5121055;28;1355;-75
2020/12/31 10:32:15;;;;;;;;;;;;;;;21.36;29.97;97290.72;5121363;28;1267;-75
2020/12/31 10:34:40;;;;;;;;;;;;;;;22.02;29.31;97291.41;5121278;28;1257;-75
2020/12/31 10:37:06;;;;;;;;;;;;;;;22.41;28.45;97287.03;5120510;28;1120;-75
2020/12/31 10:39:31;;;;;;;;;;;;;;;22.61;28.37;97289.47;5118126;28;1963;-74
2020/12/31 10:41:57;;;;;;;;;;;;;;;22.65;28.14;97297.81;5119639;28;1129;-75
2020/12/31 10:44:22;;;;;;;;;;;;;;;22.02;29.27;97297.06;5120748;28;1153;-74
2020/12/31 10:46:48;;;;;;;;;;;;;;;21.82;29.36;97294.63;5121169;28;1145;-74
2020/12/31 10:49:13;;;;;;;;;;;;;;;21.46;29.88;97312.19;5121245;28;729;-75
2020/12/31 10:51:41;;;;;;;;;;;;;;;21.22;30.10;97309.75;5121411;28;622;-73
2020/12/31 10:54:12;;;;;;;;;;;;;;;21.38;30.01;97300.31;5104036;28;1831;-74
2020/12/31 10:56:37;;;;;;;;;;;;;;;21.07;30.43;97305.84;5120272;28;851;-73
2020/12/31 10:59:03;;;;;;;;;;;;;;;21.72;29.92;97307.16;5120746;28;1898;-73
2020/12/31 11:01:28;;;;;;;;;;;;;;;22.33;28.50;97316.94;5121089;28;969;-73
2020/12/31 11:03:53;;;;;;;;;;;;;;;22.61;28.25;97303.63;5120274;28;669;-73
2020/12/31 11:06:20;;;;;;;;;;;;;;;22.27;28.69;97302.56;5120513;28;1065;-75
2020/12/31 11:08:45;;;;;;;;;;;;;;;21.38;29.83;97293.88;5120612;28;1339;-73
2020/12/31 11:11:14;;;;;;;;;;;;;;;21.61;29.56;97290.59;5119392;28;1374;-75
2020/12/31 11:13:40;;;;;;;;;;;;;;;21.47;29.53;97302.44;5120157;28;1294;-75
2020/12/31 11:16:07;;;;;;;;;;;;;;;21.55;29.46;97290.38;5120547;28;1256;-75
2020/12/31 11:18:32;;;;;;;;;;;;;;;21.59;29.66;97288.19;5115734;28;1372;-75
2020/12/31 11:20:58;;;;;;;;;;;;;;;22.10;28.88;97278.56;5119512;28;1918;-76
2020/12/31 11:23:23;;;;;;;;;;;;;;;22.56;28.26;97278.72;5120348;28;1204;-75
2020/12/31 11:25:49;;;;;;;;;;;;;;;22.72;27.88;97274.81;5120169;28;1244;-75
2020/12/31 11:28:14;;;;;;;;;;;;;;;21.87;29.04;97276.25;5116845;28;1090;-75
2020/12/31 11:30:40;;;;;;;;;;;;;;;21.69;29.16;97269.22;5120588;28;1295;-75
2020/12/31 11:33:05;;;;;;;;;;;;;;;21.53;29.54;97260.94;5120039;28;1410;-75
2020/12/31 11:35:33;;;;;;;;;;;;;;;21.36;29.61;97256.75;5120236;28;1233;-75
2020/12/31 11:37:58;;;;;;;;;;;;;;;22.00;29.18;97260.72;5120005;28;1180;-74
2020/12/31 11:40:23;;;;;;;;;;;;;;;22.47;28.19;97259.66;5119927;28;1897;-75
2020/12/31 11:42:49;;;;;;;;;;;;;;;22.83;27.45;97258.13;5120073;28;1141;-74
2020/12/31 11:45:14;;;;;;;;;;;;;;;22.34;28.14;97256.16;5120288;28;1290;-73
2020/12/31 11:47:40;;;;;;;;;;;;;;;21.77;28.88;97253.53;5120098;28;1303;-74
2020/12/31 11:50:06;;;;;;;;;;;;;;;21.45;29.24;97256.81;5119775;28;1255;-74
2020/12/31 11:52:32;;;;;;;;;;;;;;;21.46;29.27;97261.22;5102313;28;1205;-76
2020/12/31 11:54:57;;;;;;;;;;;;;;;21.51;28.91;97264.25;5119057;28;1504;-74
2020/12/31 11:57:23;;;;;;;;;;;;;;;21.61;28.93;97262.28;5119826;28;1208;-73
2020/12/31 11:59:48;;;;;;;;;;;;;;;21.92;29.40;97264.31;5120298;28;1957;-73
2020/12/31 12:02:14;;;;;;;;;;;;;;;22.39;28.43;97271.78;5120003;28;1268;-75
2020/12/31 12:04:39;;;;;;;;;;;;;;;22.58;27.70;97276.19;5119903;28;1311;-74
2020/12/31 12:07:05;;;;;;;;;;;;;;;22.50;27.81;97263.59;5119000;28;1193;-75
2020/12/31 12:09:30;;;;;;;;;;;;;;;21.77;29.25;97264.09;5118810;28;1299;-74
2020/12/31 12:11:56;;;;;;;;;;;;;;;21.40;29.39;97258.22;5119916;28;1232;-74
2020/12/31 12:14:21;;;;;;;;;;;;;;;21.62;29.10;97263.06;5119852;28;1244;-76
2020/12/31 12:16:47;;;;;;;;;;;;;;;21.53;29.25;97255.28;5119849;28;1304;-76
2020/12/31 12:19:13;;;;;;;;;;;;;;;21.92;29.22;97250.16;5118954;28;1989;-76
2020/12/31 12:21:38;;;;;;;;;;;;;;;22.31;28.21;97257.88;5119480;28;1428;-76
2020/12/31 12:24:04;;;;;;;;;;;;;;;22.40;28.17;97253.50;5119708;28;1236;-77
2020/12/31 12:26:36;;;;;;;;;;;;;;;22.12;28.67;97261.09;5119157;28;1208;-77
2020/12/31 12:29:05;;;;;;;;;;;;;;;21.73;28.96;97264.22;5118209;28;1237;-76
2020/12/31 12:31:34;;;;;;;;;;;;;;;21.50;29.51;97262.69;5123785;28;1294;-76
2020/12/31 12:34:00;;;;;;;;;;;;;;;21.50;29.31;97250.53;5122984;28;1363;-75
2020/12/31 12:36:25;;;;;;;;;;;;;;;21.20;29.60;97252.84;5123441;28;1272;-76
2020/12/31 12:38:51;;;;;;;;;;;;;;;22.09;28.67;97257.16;5122446;28;1906;-75
2020/12/31 12:41:16;;;;;;;;;;;;;;;22.41;28.23;97255.06;5123267;28;1308;-75
2020/12/31 12:43:42;;;;;;;;;;;;;;;22.55;28.11;97248.81;5123892;28;669;-75
2020/12/31 12:46:07;;;;;;;;;;;;;;;22.68;27.57;97245.81;5123911;28;640;-76
2020/12/31 12:48:33;;;;;;;;;;;;;;;21.53;29.06;97241.91;5123161;28;699;-75
2020/12/31 12:50:58;;;;;;;;;;;;;;;21.66;28.98;97241.84;5123492;28;828;-74
2020/12/31 12:53:24;;;;;;;;;;;;;;;21.76;28.89;97239.84;5123573;28;814;-76
2020/12/31 12:55:49;;;;;;;;;;;;;;;21.59;29.06;97248.56;5123662;28;976;-74
2020/12/31 12:58:15;;;;;;;;;;;;;;;21.36;29.61;97246.22;5123604;28;615;-74